sensor_id;sensor_type;location;lat;lon;timestamp;temperature;humidity
65752;DHT22;52486;51.098;13.770;2022-09-13T00:02:02;23.40;79.50
65752;DHT22;52486;51.098;13.770;2022-09-13T00:04:27;23.70;79.90
65752;DHT22;52486;51.098;13.770;2022-09-13T00:09:19;23.00;79.40
65752;DHT22;52486;51.098;13.770;2022-09-13T00:11:45;23.40;79.80
65752;DHT22;52486;51.098;13.770;2022-09-13T00:14:10;23.80;79.90
65752;DHT22;52486;51.098;13.770;2022-09-13T00:16:36;24.70;75.50
65752;DHT22;52486;51.098;13.770;2022-09-13T00:19:01;24.80;80.40
65752;DHT22;52486;51.098;13.770;2022-09-13T00:21:27;23.50;79.90
65752;DHT22;52486;51.098;13.770;2022-09-13T00:23:54;23.90;80.00
65752;DHT22;52486;51.098;13.770;2022-09-13T00:26:23;23.80;79.80
65752;DHT22;52486;51.098;13.770;2022-09-13T00:28:55;23.70;79.80
65752;DHT22;52486;51.098;13.770;2022-09-13T00:31:22;24.10;70.40
65752;DHT22;52486;51.098;13.770;2022-09-13T00:33:49;23.90;69.60
65752;DHT22;52486;51.098;13.770;2022-09-13T00:36:15;24.00;77.30
65752;DHT22;52486;51.098;13.770;2022-09-13T00:38:41;25.30;81.00
65752;DHT22;52486;51.098;13.770;2022-09-13T00:41:11;23.50;79.90
65752;DHT22;52486;51.098;13.770;2022-09-13T00:43:42;23.70;79.90
65752;DHT22;52486;51.098;13.770;2022-09-13T00:46:11;23.00;79.70
65752;DHT22;52486;51.098;13.770;2022-09-13T00:48:38;23.20;79.60
65752;DHT22;52486;51.098;13.770;2022-09-13T00:51:05;23.10;79.70
65752;DHT22;52486;51.098;13.770;2022-09-13T00:53:34;23.80;79.90
65752;DHT22;52486;51.098;13.770;2022-09-13T00:58:43;23.60;79.90
65752;DHT22;52486;51.098;13.770;2022-09-13T01:01:12;23.60;80.00
65752;DHT22;52486;51.098;13.770;2022-09-13T01:06:09;24.90;80.40
65752;DHT22;52486;51.098;13.770;2022-09-13T01:11:02;24.70;70.70
65752;DHT22;52486;51.098;13.770;2022-09-13T01:13:32;22.70;69.70
65752;DHT22;52486;51.098;13.770;2022-09-13T01:15:59;23.60;79.70
65752;DHT22;52486;51.098;13.770;2022-09-13T01:18:25;23.70;79.90
65752;DHT22;52486;51.098;13.770;2022-09-13T01:21:19;23.80;77.50
65752;DHT22;52486;51.098;13.770;2022-09-13T01:27:14;23.10;79.30
65752;DHT22;52486;51.098;13.770;2022-09-13T01:41:16;24.00;68.40
65752;DHT22;52486;51.098;13.770;2022-09-13T01:52:28;23.70;80.00
65752;DHT22;52486;51.098;13.770;2022-09-13T01:55:05;23.30;79.70
65752;DHT22;52486;51.098;13.770;2022-09-13T01:57:47;23.20;79.70
65752;DHT22;52486;51.098;13.770;2022-09-13T02:00:16;24.80;80.80
65752;DHT22;52486;51.098;13.770;2022-09-13T02:03:07;24.70;80.60
65752;DHT22;52486;51.098;13.770;2022-09-13T02:05:40;24.30;80.30
65752;DHT22;52486;51.098;13.770;2022-09-13T02:08:11;23.90;70.50
65752;DHT22;52486;51.098;13.770;2022-09-13T02:10:44;23.10;79.50
65752;DHT22;52486;51.098;13.770;2022-09-13T02:13:14;24.30;75.50
65752;DHT22;52486;51.098;13.770;2022-09-13T02:15:52;23.20;79.60
65752;DHT22;52486;51.098;13.770;2022-09-13T02:18:33;24.40;80.40
65752;DHT22;52486;51.098;13.770;2022-09-13T02:21:22;24.80;80.70
65752;DHT22;52486;51.098;13.770;2022-09-13T02:23:57;23.10;79.70
65752;DHT22;52486;51.098;13.770;2022-09-13T02:26:26;23.90;70.30
65752;DHT22;52486;51.098;13.770;2022-09-13T02:28:55;23.60;79.90
65752;DHT22;52486;51.098;13.770;2022-09-13T02:31:41;23.10;79.50
65752;DHT22;52486;51.098;13.770;2022-09-13T02:34:14;24.90;80.60
65752;DHT22;52486;51.098;13.770;2022-09-13T02:36:44;23.50;77.80
65752;DHT22;52486;51.098;13.770;2022-09-13T02:39:13;23.60;70.30
65752;DHT22;52486;51.098;13.770;2022-09-13T02:52:29;23.70;79.90
65752;DHT22;52486;51.098;13.770;2022-09-13T02:55:11;23.80;80.00
65752;DHT22;52486;51.098;13.770;2022-09-13T02:58:13;24.80;80.60
65752;DHT22;52486;51.098;13.770;2022-09-13T03:00:42;24.80;80.60
65752;DHT22;52486;51.098;13.770;2022-09-13T03:03:10;24.40;80.30
65752;DHT22;52486;51.098;13.770;2022-09-13T03:05:37;23.30;79.80
65752;DHT22;52486;51.098;13.770;2022-09-13T03:08:03;23.80;70.00
65752;DHT22;52486;51.098;13.770;2022-09-13T03:27:49;23.10;79.70
65752;DHT22;52486;51.098;13.770;2022-09-13T03:30:17;23.20;79.70
65752;DHT22;52486;51.098;13.770;2022-09-13T03:32:56;23.70;80.00
65752;DHT22;52486;51.098;13.770;2022-09-13T03:35:41;25.00;80.60
65752;DHT22;52486;51.098;13.770;2022-09-13T03:38:14;23.70;80.10
65752;DHT22;52486;51.098;13.770;2022-09-13T03:41:05;23.70;78.70
65752;DHT22;52486;51.098;13.770;2022-09-13T03:46:32;25.00;80.90
65752;DHT22;52486;51.098;13.770;2022-09-13T03:49:06;24.60;78.70
65752;DHT22;52486;51.098;13.770;2022-09-13T03:51:33;23.50;80.00
65752;DHT22;52486;51.098;13.770;2022-09-13T03:54:04;23.70;70.40
65752;DHT22;52486;51.098;13.770;2022-09-13T03:58:56;24.70;80.60
65752;DHT22;52486;51.098;13.770;2022-09-13T04:01:23;23.60;79.90
65752;DHT22;52486;51.098;13.770;2022-09-13T04:03:49;23.00;79.60
65752;DHT22;52486;51.098;13.770;2022-09-13T04:08:41;24.30;78.10
65752;DHT22;52486;51.098;13.770;2022-09-13T04:13:37;24.50;80.50
65752;DHT22;52486;51.098;13.770;2022-09-13T04:16:04;23.40;79.70
65752;DHT22;52486;51.098;13.770;2022-09-13T04:20:58;23.70;70.30
65752;DHT22;52486;51.098;13.770;2022-09-13T04:23:25;24.40;80.60
65752;DHT22;52486;51.098;13.770;2022-09-13T04:25:52;23.10;79.70
65752;DHT22;52486;51.098;13.770;2022-09-13T04:28:18;23.40;79.90
65752;DHT22;52486;51.098;13.770;2022-09-13T04:30:45;23.40;79.70
65752;DHT22;52486;51.098;13.770;2022-09-13T04:33:11;23.10;79.70
65752;DHT22;52486;51.098;13.770;2022-09-13T04:35:37;23.00;79.50
65752;DHT22;52486;51.098;13.770;2022-09-13T04:42:56;24.90;80.90
65752;DHT22;52486;51.098;13.770;2022-09-13T04:45:22;24.50;80.30
65752;DHT22;52486;51.098;13.770;2022-09-13T04:47:52;23.60;70.30
65752;DHT22;52486;51.098;13.770;2022-09-13T04:50:19;23.10;79.60
65752;DHT22;52486;51.098;13.770;2022-09-13T04:55:11;23.90;80.30
65752;DHT22;52486;51.098;13.770;2022-09-13T05:00:04;23.10;74.00
65752;DHT22;52486;51.098;13.770;2022-09-13T05:04:56;23.60;79.80
65752;DHT22;52486;51.098;13.770;2022-09-13T05:07:22;23.80;79.90
65752;DHT22;52486;51.098;13.770;2022-09-13T05:12:14;24.60;80.40
65752;DHT22;52486;51.098;13.770;2022-09-13T05:14:39;23.30;79.90
65752;DHT22;52486;51.098;13.770;2022-09-13T05:17:05;24.80;80.70
65752;DHT22;52486;51.098;13.770;2022-09-13T05:19:30;25.30;81.10
65752;DHT22;52486;51.098;13.770;2022-09-13T05:21:56;22.80;79.60
65752;DHT22;52486;51.098;13.770;2022-09-13T05:24:22;23.50;79.80
65752;DHT22;52486;51.098;13.770;2022-09-13T05:26:47;23.70;80.00
65752;DHT22;52486;51.098;13.770;2022-09-13T05:29:13;23.80;80.00
65752;DHT22;52486;51.098;13.770;2022-09-13T05:31:40;23.60;80.00
65752;DHT22;52486;51.098;13.770;2022-09-13T05:34:09;25.20;81.10
65752;DHT22;52486;51.098;13.770;2022-09-13T05:43:53;23.30;75.10
65752;DHT22;52486;51.098;13.770;2022-09-13T05:46:20;23.30;79.70
65752;DHT22;52486;51.098;13.770;2022-09-13T05:48:46;22.90;79.60
65752;DHT22;52486;51.098;13.770;2022-09-13T05:51:17;24.20;80.30
65752;DHT22;52486;51.098;13.770;2022-09-13T05:53:45;24.00;70.40
65752;DHT22;52486;51.098;13.770;2022-09-13T05:56:13;23.80;70.40
65752;DHT22;52486;51.098;13.770;2022-09-13T05:58:41;23.50;79.70
65752;DHT22;52486;51.098;13.770;2022-09-13T06:01:09;23.60;79.90
65752;DHT22;52486;51.098;13.770;2022-09-13T06:06:02;23.40;79.80
65752;DHT22;52486;51.098;13.770;2022-09-13T06:08:29;23.60;79.80
65752;DHT22;52486;51.098;13.770;2022-09-13T06:11:06;23.60;79.90
65752;DHT22;52486;51.098;13.770;2022-09-13T06:16:00;24.00;70.60
65752;DHT22;52486;51.098;13.770;2022-09-13T06:18:26;23.40;79.70
65752;DHT22;52486;51.098;13.770;2022-09-13T06:21:07;23.50;79.80
65752;DHT22;52486;51.098;13.770;2022-09-13T06:23:33;23.10;79.50
65752;DHT22;52486;51.098;13.770;2022-09-13T06:26:03;24.70;80.60
65752;DHT22;52486;51.098;13.770;2022-09-13T06:31:06;23.90;80.00
65752;DHT22;52486;51.098;13.770;2022-09-13T06:33:34;23.90;70.30
65752;DHT22;52486;51.098;13.770;2022-09-13T06:36:08;23.40;68.60
65752;DHT22;52486;51.098;13.770;2022-09-13T06:38:34;23.90;80.00
65752;DHT22;52486;51.098;13.770;2022-09-13T06:43:30;23.10;79.40
65752;DHT22;52486;51.098;13.770;2022-09-13T06:46:07;24.70;69.60
65752;DHT22;52486;51.098;13.770;2022-09-13T06:48:39;24.30;74.00
65752;DHT22;52486;51.098;13.770;2022-09-13T06:51:07;24.00;70.30
65752;DHT22;52486;51.098;13.770;2022-09-13T06:53:35;23.70;70.20
65752;DHT22;52486;51.098;13.770;2022-09-13T06:56:03;25.00;80.60
65752;DHT22;52486;51.098;13.770;2022-09-13T06:58:29;23.60;79.60
65752;DHT22;52486;51.098;13.770;2022-09-13T07:01:20;23.30;72.00
65752;DHT22;52486;51.098;13.770;2022-09-13T07:03:56;24.10;80.00
65752;DHT22;52486;51.098;13.770;2022-09-13T07:06:26;24.10;70.50
65752;DHT22;52486;51.098;13.770;2022-09-13T07:08:53;23.30;74.60
65752;DHT22;52486;51.098;13.770;2022-09-13T07:11:21;24.20;70.40
65752;DHT22;52486;51.098;13.770;2022-09-13T07:13:52;23.60;69.10
65752;DHT22;52486;51.098;13.770;2022-09-13T07:16:18;23.70;68.50
65752;DHT22;52486;51.098;13.770;2022-09-13T07:21:11;23.30;79.50
65752;DHT22;52486;51.098;13.770;2022-09-13T07:23:38;23.80;70.30
65752;DHT22;52486;51.098;13.770;2022-09-13T07:26:05;23.20;70.40
65752;DHT22;52486;51.098;13.770;2022-09-13T07:28:35;24.70;80.40
65752;DHT22;52486;51.098;13.770;2022-09-13T07:33:35;23.60;79.70
65752;DHT22;52486;51.098;13.770;2022-09-13T07:36:01;24.10;70.10
65752;DHT22;52486;51.098;13.770;2022-09-13T07:40:57;23.90;70.00
65752;DHT22;52486;51.098;13.770;2022-09-13T07:43:24;23.40;79.60
65752;DHT22;52486;51.098;13.770;2022-09-13T07:46:04;24.20;80.00
65752;DHT22;52486;51.098;13.770;2022-09-13T07:48:31;24.30;70.40
65752;DHT22;52486;51.098;13.770;2022-09-13T07:51:04;23.80;79.30
65752;DHT22;52486;51.098;13.770;2022-09-13T07:53:31;23.40;79.20
65752;DHT22;52486;51.098;13.770;2022-09-13T07:56:07;25.00;80.00
65752;DHT22;52486;51.098;13.770;2022-09-13T07:58:34;23.50;79.00
65752;DHT22;52486;51.098;13.770;2022-09-13T08:03:33;24.70;69.90
65752;DHT22;52486;51.098;13.770;2022-09-13T08:08:27;24.80;77.80
65752;DHT22;52486;51.098;13.770;2022-09-13T08:13:18;26.00;80.10
65752;DHT22;52486;51.098;13.770;2022-09-13T08:18:10;24.30;79.10
65752;DHT22;52486;51.098;13.770;2022-09-13T08:20:39;24.10;79.20
65752;DHT22;52486;51.098;13.770;2022-09-13T08:23:06;24.70;69.70
65752;DHT22;52486;51.098;13.770;2022-09-13T08:25:35;25.00;79.60
65752;DHT22;52486;51.098;13.770;2022-09-13T08:28:05;25.10;79.40
65752;DHT22;52486;51.098;13.770;2022-09-13T08:30:32;25.50;79.80
65752;DHT22;52486;51.098;13.770;2022-09-13T08:33:00;25.10;74.90
65752;DHT22;52486;51.098;13.770;2022-09-13T08:35:28;25.00;79.30
65752;DHT22;52486;51.098;13.770;2022-09-13T08:37:55;25.00;69.60
65752;DHT22;52486;51.098;13.770;2022-09-13T08:40:21;24.90;71.10
65752;DHT22;52486;51.098;13.770;2022-09-13T08:46:22;24.20;78.90
65752;DHT22;52486;51.098;13.770;2022-09-13T08:48:51;25.00;79.30
65752;DHT22;52486;51.098;13.770;2022-09-13T08:53:52;25.90;82.00
65752;DHT22;52486;51.098;13.770;2022-09-13T09:01:51;25.20;81.30
65752;DHT22;52486;51.098;13.770;2022-09-13T09:04:33;24.50;81.10
65752;DHT22;52486;51.098;13.770;2022-09-13T09:07:05;24.90;81.00
65752;DHT22;52486;51.098;13.770;2022-09-13T09:09:55;24.60;80.80
65752;DHT22;52486;51.098;13.770;2022-09-13T09:12:50;25.30;81.90
65752;DHT22;52486;51.098;13.770;2022-09-13T09:15:21;24.40;82.40
65752;DHT22;52486;51.098;13.770;2022-09-13T09:17:50;24.30;83.40
65752;DHT22;52486;51.098;13.770;2022-09-13T09:20:41;24.70;72.40
65752;DHT22;52486;51.098;13.770;2022-09-13T09:23:17;24.90;74.60
65752;DHT22;52486;51.098;13.770;2022-09-13T09:25:43;24.60;83.20
65752;DHT22;52486;51.098;13.770;2022-09-13T09:28:12;24.50;82.10
65752;DHT22;52486;51.098;13.770;2022-09-13T09:31:07;24.50;82.50
65752;DHT22;52486;51.098;13.770;2022-09-13T09:39:28;24.70;80.70
65752;DHT22;52486;51.098;13.770;2022-09-13T09:41:57;24.60;83.20
65752;DHT22;52486;51.098;13.770;2022-09-13T09:44:26;24.60;82.70
65752;DHT22;52486;51.098;13.770;2022-09-13T09:46:59;24.50;83.20
65752;DHT22;52486;51.098;13.770;2022-09-13T09:49:36;24.50;83.40
65752;DHT22;52486;51.098;13.770;2022-09-13T09:52:25;24.80;83.50
65752;DHT22;52486;51.098;13.770;2022-09-13T09:54:58;24.60;82.60
65752;DHT22;52486;51.098;13.770;2022-09-13T09:57:59;24.60;82.60
65752;DHT22;52486;51.098;13.770;2022-09-13T10:00:29;24.70;80.60
65752;DHT22;52486;51.098;13.770;2022-09-13T10:03:06;25.00;82.30
65752;DHT22;52486;51.098;13.770;2022-09-13T10:05:34;25.50;90.80
65752;DHT22;52486;51.098;13.770;2022-09-13T10:08:01;24.80;81.70
65752;DHT22;52486;51.098;13.770;2022-09-13T10:10:39;24.90;81.50
65752;DHT22;52486;51.098;13.770;2022-09-13T10:13:14;25.70;84.50
65752;DHT22;52486;51.098;13.770;2022-09-13T10:16:29;24.90;81.60
65752;DHT22;52486;51.098;13.770;2022-09-13T10:19:24;25.00;79.70
65752;DHT22;52486;51.098;13.770;2022-09-13T10:22:04;25.20;82.70
65752;DHT22;52486;51.098;13.770;2022-09-13T10:24:30;25.40;82.30
65752;DHT22;52486;51.098;13.770;2022-09-13T10:26:57;25.20;81.60
65752;DHT22;52486;51.098;13.770;2022-09-13T10:29:25;25.10;80.60
65752;DHT22;52486;51.098;13.770;2022-09-13T10:31:53;23.20;88.60
65752;DHT22;52486;51.098;13.770;2022-09-13T10:34:30;25.10;80.40
65752;DHT22;52486;51.098;13.770;2022-09-13T10:37:02;24.40;88.90
65752;DHT22;52486;51.098;13.770;2022-09-13T10:39:31;25.00;80.70
65752;DHT22;52486;51.098;13.770;2022-09-13T10:42:07;24.90;80.50
65752;DHT22;52486;51.098;13.770;2022-09-13T10:50:32;25.30;78.90
65752;DHT22;52486;51.098;13.770;2022-09-13T10:53:00;25.10;80.90
65752;DHT22;52486;51.098;13.770;2022-09-13T10:55:35;25.40;80.40
65752;DHT22;52486;51.098;13.770;2022-09-13T11:12:13;25.10;83.50
65752;DHT22;52486;51.098;13.770;2022-09-13T11:14:56;27.30;84.70
65752;DHT22;52486;51.098;13.770;2022-09-13T11:17:53;26.10;75.70
65752;DHT22;52486;51.098;13.770;2022-09-13T11:20:35;26.20;77.00
65752;DHT22;52486;51.098;13.770;2022-09-13T11:29:01;26.50;72.20
65752;DHT22;52486;51.098;13.770;2022-09-13T11:31:42;26.40;73.90
65752;DHT22;52486;51.098;13.770;2022-09-13T11:34:36;26.10;77.20
65752;DHT22;52486;51.098;13.770;2022-09-13T11:45:24;26.10;74.60
65752;DHT22;52486;51.098;13.770;2022-09-13T11:48:03;26.10;76.40
65752;DHT22;52486;51.098;13.770;2022-09-13T11:53:51;25.60;81.80
65752;DHT22;52486;51.098;13.770;2022-09-13T11:56:28;25.20;81.20
65752;DHT22;52486;51.098;13.770;2022-09-13T12:01:45;26.10;82.30
65752;DHT22;52486;51.098;13.770;2022-09-13T12:04:20;24.70;81.50
65752;DHT22;52486;51.098;13.770;2022-09-13T12:07:09;24.60;81.70
65752;DHT22;52486;51.098;13.770;2022-09-13T12:09:45;25.10;81.90
65752;DHT22;52486;51.098;13.770;2022-09-13T12:12:16;24.80;81.30
65752;DHT22;52486;51.098;13.770;2022-09-13T12:15:04;25.00;81.60
65752;DHT22;52486;51.098;13.770;2022-09-13T12:17:46;25.70;81.70
65752;DHT22;52486;51.098;13.770;2022-09-13T12:20:34;26.50;82.30
65752;DHT22;52486;51.098;13.770;2022-09-13T12:23:05;26.20;82.50
65752;DHT22;52486;51.098;13.770;2022-09-13T12:25:47;25.30;82.00
65752;DHT22;52486;51.098;13.770;2022-09-13T12:28:25;25.40;73.70
65752;DHT22;52486;51.098;13.770;2022-09-13T12:31:03;24.90;80.40
65752;DHT22;52486;51.098;13.770;2022-09-13T12:33:29;25.30;80.60
65752;DHT22;52486;51.098;13.770;2022-09-13T12:44:11;24.80;80.40
65752;DHT22;52486;51.098;13.770;2022-09-13T12:49:30;25.20;79.60
65752;DHT22;52486;51.098;13.770;2022-09-13T12:54:41;24.70;80.00
65752;DHT22;52486;51.098;13.770;2022-09-13T12:57:20;24.90;80.50
65752;DHT22;52486;51.098;13.770;2022-09-13T13:02:49;25.00;80.60
65752;DHT22;52486;51.098;13.770;2022-09-13T13:05:22;24.90;80.40
65752;DHT22;52486;51.098;13.770;2022-09-13T13:07:58;25.20;81.30
65752;DHT22;52486;51.098;13.770;2022-09-13T13:11:02;25.00;71.60
65752;DHT22;52486;51.098;13.770;2022-09-13T13:13:56;23.80;80.70
65752;DHT22;52486;51.098;13.770;2022-09-13T13:16:32;26.20;83.70
65752;DHT22;52486;51.098;13.770;2022-09-13T13:19:00;24.70;74.30
65752;DHT22;52486;51.098;13.770;2022-09-13T13:26:46;25.60;86.00
65752;DHT22;52486;51.098;13.770;2022-09-13T13:34:41;24.70;86.40
65752;DHT22;52486;51.098;13.770;2022-09-13T13:42:13;24.30;85.80
65752;DHT22;52486;51.098;13.770;2022-09-13T13:54:59;24.60;80.60
65752;DHT22;52486;51.098;13.770;2022-09-13T14:05:21;23.80;80.40
65752;DHT22;52486;51.098;13.770;2022-09-13T14:10:29;23.90;79.80
65752;DHT22;52486;51.098;13.770;2022-09-13T14:13:17;24.70;68.30
65752;DHT22;52486;51.098;13.770;2022-09-13T14:21:28;24.20;72.30
65752;DHT22;52486;51.098;13.770;2022-09-13T14:26:44;24.40;79.00
65752;DHT22;52486;51.098;13.770;2022-09-13T14:29:15;24.40;78.60
65752;DHT22;52486;51.098;13.770;2022-09-13T14:31:48;25.20;79.10
65752;DHT22;52486;51.098;13.770;2022-09-13T14:34:28;24.20;78.50
65752;DHT22;52486;51.098;13.770;2022-09-13T14:36:56;25.20;67.80
65752;DHT22;52486;51.098;13.770;2022-09-13T14:39:22;26.10;79.00
65752;DHT22;52486;51.098;13.770;2022-09-13T14:42:12;25.30;78.30
65752;DHT22;52486;51.098;13.770;2022-09-13T14:44:46;25.50;68.60
65752;DHT22;52486;51.098;13.770;2022-09-13T14:47:30;25.70;78.70
65752;DHT22;52486;51.098;13.770;2022-09-13T14:50:12;25.90;78.40
65752;DHT22;52486;51.098;13.770;2022-09-13T14:52:47;24.80;77.80
65752;DHT22;52486;51.098;13.770;2022-09-13T14:55:16;25.20;77.80
65752;DHT22;52486;51.098;13.770;2022-09-13T14:57:47;26.00;78.40
65752;DHT22;52486;51.098;13.770;2022-09-13T15:00:17;25.30;77.80
65752;DHT22;52486;51.098;13.770;2022-09-13T15:02:55;26.50;75.30
65752;DHT22;52486;51.098;13.770;2022-09-13T15:05:26;25.00;77.50
65752;DHT22;52486;51.098;13.770;2022-09-13T15:07:53;24.90;77.50
65752;DHT22;52486;51.098;13.770;2022-09-13T15:10:27;26.40;78.20
65752;DHT22;52486;51.098;13.770;2022-09-13T15:15:34;25.00;77.30
65752;DHT22;52486;51.098;13.770;2022-09-13T15:20:54;25.30;77.50
65752;DHT22;52486;51.098;13.770;2022-09-13T15:23:29;25.00;77.20
65752;DHT22;52486;51.098;13.770;2022-09-13T15:26:21;25.10;77.20
65752;DHT22;52486;51.098;13.770;2022-09-13T15:28:51;25.90;66.20
65752;DHT22;52486;51.098;13.770;2022-09-13T15:34:18;25.30;78.90
65752;DHT22;52486;51.098;13.770;2022-09-13T15:37:12;25.10;78.90
65752;DHT22;52486;51.098;13.770;2022-09-13T15:39:46;27.20;80.70
65752;DHT22;52486;51.098;13.770;2022-09-13T15:42:12;25.10;78.80
65752;DHT22;52486;51.098;13.770;2022-09-13T15:44:38;26.20;79.90
65752;DHT22;52486;51.098;13.770;2022-09-13T15:47:09;26.60;80.60
65752;DHT22;52486;51.098;13.770;2022-09-13T15:49:37;25.40;80.20
65752;DHT22;52486;51.098;13.770;2022-09-13T15:54:38;25.80;81.10
65752;DHT22;52486;51.098;13.770;2022-09-13T15:57:16;25.50;82.50
65752;DHT22;52486;51.098;13.770;2022-09-13T15:59:42;26.20;74.10
65752;DHT22;52486;51.098;13.770;2022-09-13T16:02:23;26.50;75.30
65752;DHT22;52486;51.098;13.770;2022-09-13T16:04:50;26.30;77.50
65752;DHT22;52486;51.098;13.770;2022-09-13T16:07:16;26.30;75.70
65752;DHT22;52486;51.098;13.770;2022-09-13T16:09:43;26.40;75.30
65752;DHT22;52486;51.098;13.770;2022-09-13T16:12:09;26.20;75.50
65752;DHT22;52486;51.098;13.770;2022-09-13T16:14:35;26.30;76.70
65752;DHT22;52486;51.098;13.770;2022-09-13T23:53:28;25.40;90.30
65752;DHT22;52486;51.098;13.770;2022-09-13T23:55:54;25.10;90.40
65752;DHT22;52486;51.098;13.770;2022-09-13T23:58:20;25.20;90.40
